This is the latest recevied weather packets stored in our database for station/object OK5TVR-5. If no packets are shown the sender has not sent any weather packets the latest 10 day(s).
| Time | Temp. | Humidity | Pressure | Rain* | Wind** | Luminosity | Snow |
|---|---|---|---|---|---|---|---|
| 1787928091 | 24.44° C | 56% | 1005.8 hPa | 0 mm | - | 48 W/m² | - |
| 1787928091 | 24.44° C | 56% | 1005.8 hPa | 0 mm | - | 48 W/m² | - |
| 1787928091 | 24.44° C | 56% | 1005.8 hPa | 0 mm | - | 48 W/m² | - |
| 1787928087 | 24.44° C | 56% | 1005.8 hPa | 0 mm | - | 48 W/m² | - |
| 1787927187 | 25° C | - | - | 0 mm | - | - | - |
| 1787927187 | 25° C | 50% | 1005.4 hPa | 0 mm | - | 33 W/m² | - |
| 1787926287 | 24.44° C | 53% | 1006 hPa | 0 mm | - | 69 W/m² | - |
| 1787925387 | 26.67° C | 49% | 1005.6 hPa | 0 mm | - | 176 W/m² | - |
| 1787924494 | 26.11° C | 50% | 1005.7 hPa | 0 mm | - | 100 W/m² | - |
| 1787923587 | 26.11° C | 50% | 1005.5 hPa | 0 mm | - | 216 W/m² | - |
| 1787922687 | 23.89° C | 58% | 1006.4 hPa | 0 mm | - | 81 W/m² | - |
| 1787921787 | 24.44° C | 57% | 1005.9 hPa | 0 mm | - | 172 W/m² | - |
| 1787920887 | 23.33° C | 63% | 1006.4 hPa | 0 mm | - | 115 W/m² | - |
| 1787919365 | 23.33° C | 69% | 1007.4 hPa | 0 mm | - | 160 W/m² | - |
| 1787918464 | 24.44° C | 58% | 1007 hPa | 0 mm | - | 65 W/m² | - |
| 1787917565 | 25° C | 54% | 1007.2 hPa | 0 mm | - | 36 W/m² | - |
| 1787916665 | 26.67° C | 51% | 1004.4 hPa | 0 mm | - | 66 W/m² | - |
| 1787915765 | 27.22° C | 48% | 1003.8 hPa | 0 mm | - | 79 W/m² | - |
| 1787914864 | 27.22° C | 48% | 1003.4 hPa | 0 mm | - | 112 W/m² | - |
| 1787913964 | 26.67° C | 49% | 1003.1 hPa | 0 mm | - | 161 W/m² | - |
| 1787913065 | 26.67° C | 48% | 1003.3 hPa | 0 mm | - | 154 W/m² | - |
| 1787912164 | 27.22° C | 48% | 1003.5 hPa | 0 mm | - | 176 W/m² | - |
| 1787911264 | 26.67° C | 50% | 1003.8 hPa | 0 mm | - | 215 W/m² | - |
| 1787910365 | 26.11° C | 48% | 1003.8 hPa | 0 mm | - | 199 W/m² | - |
| 1787909465 | 25° C | 51% | 1004.1 hPa | 0 mm | - | 210 W/m² | - |
* Rain latest hour (hover to see other rain measurements)
** Current wind speed in m/s (hover to see current wind gust speed)